createdAt,value
2022-10-11T00:04:07.568Z,11.15
2022-10-11T00:09:16.462Z,11.63
2022-10-11T00:14:22.483Z,12.40
2022-10-11T00:19:44.832Z,10.75
2022-10-11T00:25:33.448Z,11.57
2022-10-11T00:30:50.309Z,10.33
2022-10-11T00:36:10.782Z,13.05
2022-10-11T00:41:29.520Z,10.38
2022-10-11T00:46:58.724Z,8.68
2022-10-11T00:52:29.361Z,10.23
2022-10-11T00:57:54.993Z,12.02
2022-10-11T01:03:15.431Z,11.73
2022-10-11T01:08:34.309Z,12.50
2022-10-11T01:14:21.443Z,9.43
2022-10-11T01:20:09.413Z,9.35
2022-10-11T01:25:38.378Z,13.63
2022-10-11T01:31:06.686Z,8.48
2022-10-11T01:36:31.805Z,12.85
2022-10-11T01:41:55.182Z,13.00
2022-10-11T01:47:15.249Z,10.02
2022-10-11T01:52:43.819Z,14.05
2022-10-11T01:58:16.683Z,11.45
2022-10-11T02:03:53.488Z,9.55
2022-10-11T02:09:22.475Z,10.45
2022-10-11T02:14:50.530Z,10.35
2022-10-11T02:20:15.805Z,10.18
2022-10-11T02:25:37.767Z,10.27
2022-10-11T02:31:01.841Z,10.90
2022-10-11T02:36:44.066Z,9.32
2022-10-11T02:42:11.407Z,8.15
2022-10-11T02:47:33.472Z,12.25
2022-10-11T02:53:05.027Z,8.52
2022-10-11T02:58:21.932Z,10.02
2022-10-11T03:03:42.352Z,11.95
2022-10-11T03:09:00.376Z,6.38
2022-10-11T03:14:20.232Z,11.68
2022-10-11T03:19:40.509Z,11.90
2022-10-11T03:25:03.610Z,12.52
2022-10-11T03:30:26.928Z,12.63
2022-10-11T03:35:48.928Z,8.68
2022-10-11T03:41:09.995Z,12.48
2022-10-11T03:46:31.843Z,8.35
2022-10-11T03:51:50.145Z,9.18
2022-10-11T03:57:13.874Z,11.88
2022-10-11T04:02:39.307Z,10.30
2022-10-11T04:08:01.576Z,10.15
2022-10-11T04:13:21.646Z,11.57
2022-10-11T04:18:42.438Z,10.90
2022-10-11T04:24:00.730Z,9.90
2022-10-11T04:29:21.679Z,10.68
2022-10-11T04:34:40.668Z,9.23
2022-10-11T04:40:02.816Z,10.95
2022-10-11T04:45:23.274Z,12.30
2022-10-11T04:50:41.488Z,9.95
2022-10-11T04:56:02.248Z,11.68
2022-10-11T05:01:22.768Z,12.75
2022-10-11T05:06:40.582Z,9.98
2022-10-11T05:12:00.277Z,10.43
2022-10-11T05:17:20.361Z,10.68
2022-10-11T05:22:40.077Z,12.57
2022-10-11T05:27:59.692Z,12.68
2022-10-11T05:33:19.779Z,10.55
2022-10-11T05:38:40.260Z,13.68
2022-10-11T05:43:59.159Z,11.85
2022-10-11T05:49:19.604Z,11.10
2022-10-11T05:54:41.066Z,15.25
2022-10-11T06:00:03.693Z,11.38
2022-10-11T06:05:30.288Z,12.05
2022-10-11T06:10:54.175Z,13.32
2022-10-11T06:16:19.529Z,15.40
2022-10-11T06:21:39.157Z,12.07
2022-10-11T06:26:57.254Z,16.10
2022-10-11T06:32:48.853Z,14.95
2022-10-11T06:38:34.687Z,13.32
2022-10-11T06:44:15.254Z,17.13
2022-10-11T06:49:37.656Z,18.05
2022-10-11T06:54:57.536Z,16.73
2022-10-11T07:00:18.016Z,15.02
2022-10-11T07:05:50.654Z,17.00
2022-10-11T07:11:33.039Z,15.30
2022-10-11T07:17:13.623Z,19.33
2022-10-11T07:22:53.071Z,17.88
2022-10-11T07:28:27.698Z,19.33
2022-10-11T07:34:06.955Z,14.90
2022-10-11T07:39:25.932Z,17.15
2022-10-11T07:45:00.759Z,13.63
2022-10-11T07:50:19.348Z,14.57
2022-10-11T07:55:40.558Z,15.20
2022-10-11T08:01:48.101Z,17.70
2022-10-11T08:07:07.905Z,14.68
2022-10-11T08:12:44.790Z,13.88
2022-10-11T08:18:33.608Z,13.35
2022-10-11T08:24:10.934Z,17.25
2022-10-11T08:29:30.322Z,14.02
2022-10-11T08:34:51.287Z,10.27
2022-10-11T08:40:16.540Z,10.10
2022-10-11T08:45:40.648Z,9.23
2022-10-11T08:50:52.195Z,7.55
2022-10-11T08:55:58.499Z,6.47
2022-10-11T09:01:12.345Z,12.40
2022-10-11T09:06:36.965Z,5.20
2022-10-11T09:12:02.429Z,10.63
2022-10-11T09:17:24.207Z,9.10
2022-10-11T09:22:43.595Z,5.28
2022-10-11T09:28:13.497Z,6.72
2022-10-11T09:38:47.802Z,5.65
2022-10-11T09:43:54.368Z,6.95
2022-10-11T09:49:06.217Z,7.35
2022-10-11T09:54:12.126Z,5.07
2022-10-11T09:59:30.158Z,2.97
2022-10-11T10:04:55.411Z,5.20
2022-10-11T10:10:22.253Z,7.00
2022-10-11T10:15:32.204Z,12.90
2022-10-11T10:20:40.693Z,7.00
2022-10-11T10:25:51.409Z,8.17
2022-10-11T10:30:59.637Z,3.25
2022-10-11T10:36:20.709Z,7.87
2022-10-11T10:41:27.333Z,8.23
2022-10-11T10:46:52.911Z,7.80
2022-10-11T10:52:21.985Z,5.65
2022-10-11T11:10:20.943Z,4.50
2022-10-11T11:15:42.805Z,6.30
2022-10-11T11:28:20.688Z,2.25
2022-10-11T11:33:58.300Z,6.57
2022-10-11T11:39:08.858Z,5.23
2022-10-11T11:44:27.566Z,4.65
2022-10-11T11:49:41.256Z,5.13
2022-10-11T11:55:00.164Z,4.53
2022-10-11T12:00:20.453Z,5.20
2022-10-11T12:05:32.768Z,5.03
2022-10-11T12:10:55.935Z,8.10
2022-10-11T12:16:14.539Z,6.75
2022-10-11T12:21:30.646Z,7.90
2022-10-11T12:26:44.684Z,3.38
2022-10-11T12:32:51.817Z,7.15
2022-10-11T12:38:20.292Z,2.88
2022-10-11T12:44:20.947Z,5.07
2022-10-11T12:50:28.371Z,4.78
2022-10-11T12:55:53.476Z,1.70
2022-10-11T13:01:23.602Z,3.38
2022-10-11T13:06:39.724Z,6.28
2022-10-11T13:11:52.572Z,6.03
2022-10-11T13:17:09.189Z,5.25
2022-10-11T13:22:23.257Z,6.03
2022-10-11T13:27:30.614Z,5.70
2022-10-11T13:32:38.844Z,7.53
2022-10-11T13:37:49.082Z,3.93
2022-10-11T13:42:56.616Z,4.50
2022-10-11T13:48:03.586Z,4.05
2022-10-11T13:53:26.393Z,5.75
2022-10-11T13:58:39.114Z,3.45
2022-10-11T14:03:50.442Z,4.72
2022-10-11T14:08:59.577Z,4.97
2022-10-11T14:14:31.575Z,4.47
2022-10-11T14:19:38.864Z,7.03
2022-10-11T14:24:49.729Z,6.97
2022-10-11T14:30:20.250Z,4.75
2022-10-11T14:35:26.168Z,6.03
2022-10-11T14:40:34.299Z,6.07
2022-10-11T14:45:40.621Z,7.45
2022-10-11T14:50:51.742Z,3.38
2022-10-11T14:55:59.261Z,4.18
2022-10-11T15:01:08.018Z,6.88
2022-10-11T15:06:20.946Z,6.65
2022-10-11T15:11:28.801Z,6.10
2022-10-11T15:16:36.234Z,5.28
2022-10-11T15:21:42.435Z,7.63
2022-10-11T15:26:51.162Z,4.68
2022-10-11T15:31:57.228Z,6.88
2022-10-11T15:37:07.828Z,5.35
2022-10-11T15:42:15.145Z,5.57
2022-10-11T15:47:21.319Z,9.85
2022-10-11T15:52:27.342Z,8.05
2022-10-11T15:57:34.945Z,5.22
2022-10-11T16:02:41.395Z,7.28
2022-10-11T16:07:47.423Z,4.80
2022-10-11T16:12:54.935Z,5.10
2022-10-11T16:18:02.721Z,9.43
2022-10-11T16:23:10.378Z,9.38
2022-10-11T16:28:18.191Z,7.70
2022-10-11T16:33:24.550Z,8.32
2022-10-11T16:38:30.544Z,10.77
2022-10-11T16:43:38.060Z,9.65
2022-10-11T16:48:43.906Z,5.63
2022-10-11T16:53:49.880Z,5.45
2022-10-11T17:00:10.254Z,6.35
2022-10-11T17:12:28.540Z,10.13
2022-10-11T17:17:34.847Z,8.67
2022-10-11T17:22:41.854Z,9.02
2022-10-11T17:27:49.782Z,12.52
2022-10-11T17:32:56.455Z,13.93
2022-10-11T17:38:06.117Z,21.75
2022-10-11T17:43:16.153Z,28.13
2022-10-11T17:48:23.687Z,32.55
2022-10-11T17:53:30.829Z,31.63
2022-10-11T17:58:39.298Z,36.90
2022-10-11T18:03:46.492Z,29.90
2022-10-11T18:08:53.406Z,23.52
2022-10-11T18:14:01.922Z,19.80
2022-10-11T18:24:19.238Z,14.77
2022-10-11T18:29:27.049Z,17.33
2022-10-11T18:34:35.739Z,19.63
2022-10-11T18:39:41.985Z,17.33
2022-10-11T18:44:50.022Z,19.80
2022-10-11T18:49:58.376Z,21.88
2022-10-11T18:55:09.175Z,18.13
2022-10-11T19:00:40.039Z,28.45
2022-10-11T19:05:47.178Z,34.00
2022-10-11T19:10:53.453Z,27.05
2022-10-11T19:16:08.785Z,22.98
2022-10-11T19:21:15.917Z,26.55
2022-10-11T19:26:24.662Z,23.42
2022-10-11T19:31:35.539Z,19.25
2022-10-11T19:36:43.095Z,17.88
2022-10-11T19:41:50.157Z,27.85
2022-10-11T19:47:47.449Z,19.95
2022-10-11T19:53:18.637Z,17.15
2022-10-11T19:58:26.007Z,22.77
2022-10-11T20:04:00.651Z,23.85
2022-10-11T20:09:32.854Z,23.38
2022-10-11T20:15:04.305Z,24.10
2022-10-11T20:20:13.740Z,28.58
2022-10-11T20:25:20.864Z,32.80
2022-10-11T20:30:27.643Z,29.17
2022-10-11T20:35:35.997Z,20.58
2022-10-11T20:40:48.310Z,18.67
2022-10-11T20:46:07.601Z,18.77
2022-10-11T20:56:25.588Z,19.00
2022-10-11T21:01:37.287Z,17.65
2022-10-11T21:06:46.624Z,22.05
2022-10-11T21:12:41.861Z,15.05
2022-10-11T21:17:48.525Z,16.85
2022-10-11T21:22:57.691Z,12.82
2022-10-11T21:33:18.216Z,15.05
2022-10-11T21:39:16.818Z,17.02
2022-10-11T21:44:23.202Z,13.52
2022-10-11T21:49:30.751Z,17.17
2022-10-11T21:54:39.751Z,13.13
2022-10-11T21:59:49.293Z,15.68
2022-10-11T22:05:00.493Z,21.60
2022-10-11T22:10:08.971Z,21.50
2022-10-11T22:16:31.014Z,15.73
2022-10-11T22:21:41.288Z,13.88
2022-10-11T22:26:52.154Z,16.05
2022-10-11T22:32:02.333Z,15.55
2022-10-11T22:37:08.605Z,15.98
2022-10-11T22:42:16.306Z,14.48
2022-10-11T22:47:47.903Z,15.65
2022-10-11T22:53:19.693Z,12.65
2022-10-11T22:58:54.298Z,12.90
2022-10-11T23:04:00.825Z,11.10
2022-10-11T23:09:07.487Z,12.85
2022-10-11T23:14:15.802Z,14.15
2022-10-11T23:20:36.627Z,11.07
2022-10-11T23:26:32.065Z,11.00
2022-10-11T23:31:41.627Z,17.45
2022-10-11T23:37:37.538Z,17.08
2022-10-11T23:42:44.680Z,9.48
2022-10-11T23:47:52.579Z,9.70
2022-10-11T23:52:58.953Z,8.75
2022-10-11T23:58:06.158Z,10.07
